createdAt,value
2023-02-21T00:07:19.646Z,44.21
2023-02-21T00:17:24.735Z,44.21
2023-02-21T00:27:29.999Z,44.21
2023-02-21T00:37:35.549Z,44.27
2023-02-21T00:47:40.899Z,44.26
2023-02-21T00:57:46.122Z,44.28
2023-02-21T01:07:51.761Z,44.28
2023-02-21T01:17:56.929Z,44.28
2023-02-21T01:28:02.425Z,44.24
2023-02-21T01:38:08.172Z,44.30
2023-02-21T01:48:13.471Z,44.33
2023-02-21T01:58:18.771Z,44.40
2023-02-21T02:08:24.346Z,44.45
2023-02-21T02:18:29.634Z,44.45
2023-02-21T02:28:34.752Z,44.42
2023-02-21T02:38:40.375Z,44.41
2023-02-21T02:48:45.578Z,44.43
2023-02-21T02:58:51.088Z,44.45
2023-02-21T03:08:56.560Z,44.47
2023-02-21T03:19:02.342Z,44.47
2023-02-21T03:29:07.499Z,44.49
2023-02-21T03:39:12.918Z,44.51
2023-02-21T03:49:18.379Z,44.52
2023-02-21T03:59:23.770Z,44.53
2023-02-21T04:09:28.756Z,44.54
2023-02-21T04:19:34.014Z,44.59
2023-02-21T04:29:39.749Z,44.61
2023-02-21T04:39:46.071Z,44.62
2023-02-21T04:49:51.232Z,44.59
2023-02-21T04:59:56.654Z,44.59
2023-02-21T05:10:01.773Z,44.60
2023-02-21T05:20:06.663Z,44.64
2023-02-21T05:30:12.151Z,44.66
2023-02-21T05:40:17.805Z,44.66
2023-02-21T05:50:23.426Z,44.69
2023-02-21T06:00:28.606Z,44.70
2023-02-21T06:10:33.983Z,44.74
2023-02-21T06:20:39.181Z,44.75
2023-02-21T06:30:44.472Z,44.76
2023-02-21T06:40:49.407Z,44.81
2023-02-21T06:50:54.987Z,44.79
2023-02-21T07:01:00.411Z,44.81
2023-02-21T07:11:05.329Z,44.82
2023-02-21T07:21:10.641Z,44.86
2023-02-21T07:31:18.265Z,44.86
2023-02-21T07:41:24.645Z,44.89
2023-02-21T07:51:30.074Z,44.86
2023-02-21T08:01:35.021Z,44.88
2023-02-21T08:11:40.334Z,44.88
2023-02-21T08:21:46.490Z,44.88
2023-02-21T08:31:51.733Z,44.89
2023-02-21T08:41:56.971Z,44.92
2023-02-21T08:52:02.241Z,44.94
2023-02-21T09:02:07.342Z,45.00
2023-02-21T09:12:12.615Z,45.07
2023-02-21T09:22:18.111Z,45.13
2023-02-21T09:32:23.294Z,45.05
2023-02-21T09:42:28.738Z,45.15
2023-02-21T09:52:34.093Z,44.99
2023-02-21T10:02:39.671Z,44.94
2023-02-21T10:12:45.030Z,44.88
2023-02-21T10:22:50.637Z,44.84
2023-02-21T10:32:56.213Z,44.80
2023-02-21T10:43:01.444Z,44.71
2023-02-21T10:53:07.242Z,44.74
2023-02-21T11:03:12.506Z,44.69
2023-02-21T11:13:17.824Z,44.63
2023-02-21T11:23:23.180Z,44.57
2023-02-21T11:33:29.003Z,44.52
2023-02-21T11:43:34.479Z,44.43
2023-02-21T11:53:39.960Z,44.50
2023-02-21T12:03:45.344Z,44.43
2023-02-21T12:13:50.618Z,44.51
2023-02-21T12:23:56.203Z,44.41
2023-02-21T12:34:01.457Z,44.39
2023-02-21T12:44:07.326Z,44.31
2023-02-21T12:54:12.540Z,44.33
2023-02-21T13:04:18.290Z,44.28
2023-02-21T13:14:23.426Z,44.28
2023-02-21T13:24:29.212Z,44.33
2023-02-21T13:34:34.242Z,44.21
2023-02-21T13:44:39.944Z,44.23
2023-02-21T13:54:45.336Z,44.24
2023-02-21T14:04:50.926Z,44.21
2023-02-21T14:14:56.185Z,44.24
2023-02-21T14:25:01.391Z,44.16
2023-02-21T14:35:06.583Z,44.18
2023-02-21T14:45:11.851Z,44.14
2023-02-21T14:55:17.244Z,44.12
2023-02-21T15:05:22.734Z,44.09
2023-02-21T15:15:28.251Z,44.08
2023-02-21T15:25:33.604Z,44.03
2023-02-21T15:35:38.681Z,44.02
2023-02-21T15:45:44.107Z,44.02
2023-02-21T15:55:49.308Z,44.03
2023-02-21T16:05:54.431Z,44.01
2023-02-21T16:15:59.739Z,44.02
2023-02-21T16:26:05.348Z,44.01
2023-02-21T16:36:10.504Z,44.03
2023-02-21T16:46:16.140Z,44.05
2023-02-21T16:56:21.849Z,44.04
2023-02-21T17:06:27.904Z,44.03
2023-02-21T17:16:33.551Z,44.05
2023-02-21T17:26:39.439Z,44.06
2023-02-21T17:36:45.019Z,44.04
2023-02-21T17:46:50.337Z,44.06
2023-02-21T17:56:55.637Z,44.04
2023-02-21T18:07:00.843Z,44.04
2023-02-21T18:17:06.395Z,44.04
2023-02-21T18:27:11.604Z,44.06
2023-02-21T18:37:16.697Z,44.26
2023-02-21T18:47:22.011Z,44.26
2023-02-21T18:57:27.745Z,44.33
2023-02-21T19:07:34.087Z,44.22
2023-02-21T19:17:39.983Z,44.23
2023-02-21T19:27:45.979Z,44.15
2023-02-21T19:37:51.078Z,44.11
2023-02-21T19:47:56.605Z,44.13
2023-02-21T19:58:02.037Z,44.09
2023-02-21T20:08:07.535Z,44.07
2023-02-21T20:18:12.909Z,44.08
2023-02-21T20:28:18.399Z,44.02
2023-02-21T20:38:23.759Z,44.02
2023-02-21T20:48:29.273Z,43.99
2023-02-21T20:58:34.560Z,43.96
2023-02-21T21:08:39.947Z,43.95
2023-02-21T21:20:04.809Z,43.91
2023-02-21T21:30:09.298Z,43.87
2023-02-21T21:40:15.099Z,43.87
2023-02-21T21:50:21.047Z,43.84
2023-02-21T22:00:26.138Z,43.83
2023-02-21T22:10:31.921Z,43.83
2023-02-21T22:20:37.425Z,43.81
2023-02-21T22:30:42.721Z,43.79
2023-02-21T22:40:48.271Z,43.80
2023-02-21T22:50:54.182Z,43.74
2023-02-21T23:01:00.004Z,43.72
2023-02-21T23:11:05.387Z,43.68
2023-02-21T23:21:10.773Z,43.70
2023-02-21T23:31:16.739Z,43.68
2023-02-21T23:41:22.553Z,43.65
2023-02-21T23:51:28.264Z,43.70
